»·PEaware :: DAL4243 KPHX-KABQ

DAL4243 :: KPHX-KABQ

FLIGHT INFORMATION

Flight Status: Arrived
Operator:
Delta Air Lines
More flights by this operator :: More flights under this callsign
Pilot: Sean Bradley (13609)
Aircraft: BOEING 757-200
(B752)
More flights by this aircraft type
Origin: KPHX Phoenix Sky Harbor Intl
United States
Destination: KABQ Albuquerque Intl Sunport
United States
More flights between these airports :: More routes between these airports
Route: LALUZ5 SJN CABNO KRKEE3
File this flight plan on PilotEdge
Remarks:
Altitude:
(Current/Filed)
25,000ft
Speed:
(Current/Filed)
430kts
Departed: 03-Jan-17 10:58 PM
Arrived: 03-Jan-17 11:56 PM
Distance/Time
Traveled:
284nm/0:57
Distance/Time
To Go:
Arrived

Flight Plot

Page will automatically refresh every two minutes.

Flight plan parsing failed; only flown route is shown


Map Options




Map Legend


Flown Route
Filed Route
Departure Airport
Arrival Airport
Navaid (VOR, NDB)
Fix

Horizontal Profiles

Position Reports

Time Latitude Longitude Heading Altitude Ground
Speed
03-Jan-17 22:14 33.437405 -112.008131 270 1130ft 0kts
03-Jan-17 22:15 33.437405 -112.008131 270 1130ft 0kts
03-Jan-17 22:16 33.437405 -112.008131 270 1130ft 0kts
03-Jan-17 22:17 33.437405 -112.008131 270 1130ft 0kts
03-Jan-17 22:18 33.437405 -112.008131 270 1130ft 0kts
03-Jan-17 22:19 33.437405 -112.008131 270 1130ft 0kts
03-Jan-17 22:20 33.437405 -112.008131 270 1130ft 0kts
03-Jan-17 22:21 33.437405 -112.008131 270 1130ft 0kts
03-Jan-17 22:22 33.437405 -112.008131 270 1130ft 0kts
03-Jan-17 22:23 33.437405 -112.008131 270 1130ft 0kts
03-Jan-17 22:24 33.437405 -112.008131 270 1130ft 0kts
03-Jan-17 22:25 33.437405 -112.008131 270 1130ft 0kts
03-Jan-17 22:26 33.437405 -112.008131 270 1130ft 0kts
03-Jan-17 22:27 33.437405 -112.008131 270 1130ft 0kts
03-Jan-17 22:28 33.437405 -112.008131 270 1130ft 0kts
03-Jan-17 22:29 33.437405 -112.008131 270 1130ft 0kts
03-Jan-17 22:30 33.437405 -112.008131 270 1130ft 0kts
03-Jan-17 22:31 33.437405 -112.008131 270 1130ft 0kts
03-Jan-17 22:32 33.437405 -112.008131 270 1130ft 0kts
03-Jan-17 22:33 33.437405 -112.008131 270 1130ft 0kts
03-Jan-17 22:34 33.437405 -112.008131 270 1130ft 0kts
03-Jan-17 22:35 33.437405 -112.008131 270 1130ft 0kts
03-Jan-17 22:36 33.437405 -112.008131 270 1130ft 0kts
03-Jan-17 22:37 33.437405 -112.008131 270 1130ft 0kts
03-Jan-17 22:38 33.437405 -112.008131 270 1130ft 0kts
03-Jan-17 22:39 33.437405 -112.008131 270 1130ft 0kts
03-Jan-17 22:40 33.437405 -112.008131 270 1130ft 0kts
03-Jan-17 22:41 33.437405 -112.008131 270 1130ft 0kts
03-Jan-17 22:42 33.437405 -112.008131 270 1130ft 0kts
03-Jan-17 22:43 33.437405 -112.008027 270 1130ft 2kts
03-Jan-17 22:44 33.437317 -112.007444 320 1130ft 1kts
03-Jan-17 22:45 33.437140 -112.007368 0 1130ft 0kts
03-Jan-17 22:46 33.437140 -112.007368 0 1130ft 0kts
03-Jan-17 22:47 33.437140 -112.007368 0 1130ft 0kts
03-Jan-17 22:48 33.437140 -112.007368 0 1130ft 0kts
03-Jan-17 22:49 33.437140 -112.007368 0 1130ft 0kts
03-Jan-17 22:50 33.437475 -112.007367 0 1130ft 4kts
03-Jan-17 22:51 33.438802 -112.007409 335 1133ft 6kts
03-Jan-17 22:52 33.439005 -112.010676 270 1130ft 13kts
03-Jan-17 22:53 33.439014 -112.014980 270 1127ft 15kts
03-Jan-17 22:54 33.439031 -112.020393 270 1124ft 18kts
03-Jan-17 22:55 33.439027 -112.026105 270 1120ft 15kts
03-Jan-17 22:56 33.439481 -112.029637 352 1117ft 8kts
03-Jan-17 22:57 33.439746 -112.029655 358 1117ft 4kts
03-Jan-17 22:58 33.440848 -112.024888 90 1121ft 91kts
03-Jan-17 22:59 33.439067 -111.976143 95 2627ft 195kts
03-Jan-17 23:00 33.436835 -111.908757 89 4549ft 264kts
03-Jan-17 23:01 33.454682 -111.839586 62 7544ft 282kts
03-Jan-17 23:02 33.488667 -111.756734 62 10626ft 310kts
03-Jan-17 23:03 33.529273 -111.657761 62 12544ft 380kts
03-Jan-17 23:04 33.571213 -111.555547 61 15316ft 403kts
03-Jan-17 23:05 33.613015 -111.453581 60 17482ft 426kts
03-Jan-17 23:06 33.663694 -111.331686 60 19698ft 451kts
03-Jan-17 23:07 33.712564 -111.203914 63 21640ft 473kts
03-Jan-17 23:08 33.762865 -111.062823 63 23820ft 484kts
03-Jan-17 23:09 33.811555 -110.927120 63 25260ft 489kts
03-Jan-17 23:10 33.855514 -110.804375 63 25256ft 487kts
03-Jan-17 23:11 33.896425 -110.688515 63 25262ft 491kts
03-Jan-17 23:12 33.938661 -110.568303 63 25246ft 490kts
03-Jan-17 23:13 33.980445 -110.448911 63 25249ft 490kts
03-Jan-17 23:14 34.019340 -110.337381 64 25245ft 490kts
03-Jan-17 23:15 34.059055 -110.223106 63 25236ft 493kts
03-Jan-17 23:16 34.098670 -110.108699 64 25235ft 493kts
03-Jan-17 23:17 34.137453 -109.996263 64 25236ft 494kts
03-Jan-17 23:18 34.177028 -109.881135 64 25238ft 493kts
03-Jan-17 23:19 34.218957 -109.758692 64 25237ft 494kts
03-Jan-17 23:20 34.266579 -109.619038 64 25230ft 491kts
03-Jan-17 23:21 34.316229 -109.470706 64 25239ft 491kts
03-Jan-17 23:22 34.355695 -109.353081 64 25236ft 490kts
03-Jan-17 23:23 34.389136 -109.253699 64 25195ft 490kts
03-Jan-17 23:24 34.419509 -109.160969 70 25195ft 493kts
03-Jan-17 23:25 34.437380 -109.044613 80 25197ft 495kts
03-Jan-17 23:26 34.456453 -108.893396 80 25202ft 496kts
03-Jan-17 23:27 34.475996 -108.736681 80 25206ft 496kts
03-Jan-17 23:28 34.495450 -108.578991 80 25209ft 495kts
03-Jan-17 23:29 34.521044 -108.416854 75 25224ft 495kts
03-Jan-17 23:30 34.542359 -108.295953 77 25211ft 495kts
03-Jan-17 23:31 34.568990 -108.139944 76 25202ft 495kts
03-Jan-17 23:32 34.594394 -107.989523 76 23945ft 494kts
03-Jan-17 23:33 34.611678 -107.886449 76 22081ft 479kts
03-Jan-17 23:34 34.654863 -107.741546 58 21210ft 427kts
03-Jan-17 23:35 34.707946 -107.612794 58 20326ft 433kts
03-Jan-17 23:36 34.759250 -107.491990 57 18416ft 388kts
03-Jan-17 23:37 34.799412 -107.398118 58 17105ft 378kts
03-Jan-17 23:38 34.850778 -107.277554 59 15833ft 371kts
03-Jan-17 23:39 34.894684 -107.171307 60 13663ft 341kts
03-Jan-17 23:40 34.926140 -107.097108 59 12160ft 319kts
03-Jan-17 23:41 34.964347 -107.007259 60 10320ft 311kts
03-Jan-17 23:42 34.994841 -106.932411 62 9338ft 302kts
03-Jan-17 23:43 35.027910 -106.848220 62 8182ft 280kts
03-Jan-17 23:44 35.044883 -106.794986 88 7996ft 234kts
03-Jan-17 23:45 35.044618 -106.732699 89 7580ft 215kts
03-Jan-17 23:46 35.044619 -106.673076 89 7599ft 213kts
03-Jan-17 23:47 35.046171 -106.603658 83 7600ft 211kts
03-Jan-17 23:48 35.055995 -106.553886 33 7581ft 198kts
03-Jan-17 23:49 35.100254 -106.557031 298 7592ft 176kts
03-Jan-17 23:50 35.100026 -106.612312 268 7603ft 178kts
03-Jan-17 23:51 35.096957 -106.662100 268 7602ft 178kts
03-Jan-17 23:52 35.080910 -106.708806 198 7600ft 197kts
03-Jan-17 23:53 35.048923 -106.686217 130 7209ft 152kts
03-Jan-17 23:54 35.044206 -106.643004 88 5626ft 128kts
03-Jan-17 23:55 35.044217 -106.606497 90 5323ft 42kts
03-Jan-17 23:56 35.045492 -106.602764 312 5326ft 2kts
03-Jan-17 23:57 35.045812 -106.603566 272 5326ft 2kts
03-Jan-17 23:58 35.045810 -106.606783 269 5325ft 13kts
03-Jan-17 23:59 35.045830 -106.611388 270 5323ft 14kts
04-Jan-17 00:00 35.045576 -106.615675 270 5320ft 11kts
04-Jan-17 00:01 35.045809 -106.619435 330 5314ft 10kts
04-Jan-17 00:02 35.047034 -106.619112 69 5315ft 3kts
04-Jan-17 00:03 35.047110 -106.618856 69 5316ft 0kts
04-Jan-17 00:04 35.047110 -106.618856 69 5316ft 0kts
04-Jan-17 00:05 35.047110 -106.618856 69 5316ft 0kts
04-Jan-17 00:06 35.047110 -106.618856 69 5316ft 0kts
04-Jan-17 00:07 35.047110 -106.618856 69 5316ft 0kts
04-Jan-17 00:08 35.047110 -106.618856 69 5316ft 0kts
04-Jan-17 00:09 35.047110 -106.618856 69 5316ft 0kts
04-Jan-17 00:10 35.047110 -106.618856 69 5316ft 0kts

Navigation Log

Ident Type
Flight plan parsing failed, navigation log unavailable